Lake Wales, FL

2:00 AM EST on February 11, 2016 (GMT -0500)
Country Oaks | | Change Station
CLOSE
Current Station
Personal Weather Station
Location: Lake Wales, FL
Elevation: 128 ft
Nearby Weather Stations
Active Advisory: Frost Advisory

Elev 128 ft 27.92 °N, 81.53 °W | Updated 11 minutes ago

Clear
Clear
33.6 °F
Feels Like 34 °F
N
0.0
Wind Variable Wind from SSW

Today
High -- | Low -- °F
--% Chance of Precip.
Yesterday
High -- | Low -- °F
Precip. -- in
Pressure 30.27 in
Visibility 10.0 miles
Clouds Clear
Windchill 34 °F
Dew Point 33 °F
Humidity 99%
Rainfall 0.00 in
Snow Depth Not available.
7:07 AM 6:14 PM
Waxing Crescent, 10% visible
METAR KBOW 110655Z AUTO 00000KT 10SM CLR 03/02 A3027 RMK AO2
Pressure 30.27 in
Visibility 10.0 miles
Clouds Clear
Windchill 34 °F
Dew Point 33 °F
Humidity 99%
Rainfall 0.00 in
Snow Depth Not available.
7:07 AM 6:14 PM
Waxing Crescent, 10% visible
METAR KBOW 110655Z AUTO 00000KT 10SM CLR 03/02 A3027 RMK AO2

10-Day Weather Forecast

Almanac

Astronomy

Feb. 11, 2016 Rise Set
Actual Time
Civil Twilight
Nautical Twilight
Astronomical Twilight
Moon
Length of Visible Light
Length of Day
Tomorrow will be .
, % of the Moon is Illuminated

Today's Extremes

State Highs State Lows

Community

WunderPhotos

Upload Photos

1,892,028 photos uploaded!

WunderBlog® & News

Nearby

Air Quality

  Air Quality AQ Index Pollutant
Not available.

Snow Depth

Station Depth Elevation

Earthquake Activity

City Distance Mag. Time & Date
Minimum magnitude displayed is 2.5.

Coastal Water Temperatures

Place Temperature

Stations

Nearby Weather Stations

Station Location Temp. Windchill Dew Point Humidity Wind Precip. Elev Updated Type
                   

Watches & Warnings

Frost Advisory
Issued: 9:49 PM EST Feb. 10, 2016 – National Weather Service

... Frost advisory remains in effect from 3 am to 9 am EST
Thursday...

* temperature... 33 to 36.

* Impacts... sensitive plants may be killed.

Precautionary/preparedness actions...

A frost advisory means that frost is possible. Sensitive outdoor
plants may be killed if left uncovered. Consider brining your
pets inside.